createdAt,value
2022-10-31T00:02:56.415Z,101109.81
2022-10-31T00:05:59.248Z,101104.84
2022-10-31T00:09:04.296Z,101110.19
2022-10-31T00:12:07.151Z,101104.41
2022-10-31T00:15:09.723Z,101106.44
2022-10-31T00:18:12.663Z,101104.31
2022-10-31T00:21:15.849Z,101095.84
2022-10-31T00:24:18.526Z,101108.19
2022-10-31T00:27:21.002Z,101107.81
2022-10-31T00:30:24.178Z,101099.28
2022-10-31T00:33:27.229Z,101099.13
2022-10-31T00:36:30.065Z,101103.47
2022-10-31T00:39:32.560Z,101095.75
2022-10-31T00:42:35.311Z,101092.97
2022-10-31T00:45:37.827Z,101096.88
2022-10-31T00:48:40.875Z,101097.03
2022-10-31T00:51:43.485Z,101105.22
2022-10-31T00:54:46.202Z,101093.19
2022-10-31T00:57:48.911Z,101088.00
2022-10-31T01:00:57.781Z,101087.19
2022-10-31T01:04:00.497Z,101092.50
2022-10-31T01:07:03.214Z,101100.25
2022-10-31T01:10:06.887Z,101094.25
2022-10-31T01:13:09.693Z,101088.03
2022-10-31T01:16:17.183Z,101086.03
2022-10-31T01:19:20.905Z,101086.25
2022-10-31T01:22:23.427Z,101082.75
2022-10-31T01:25:26.654Z,101077.84
2022-10-31T01:28:29.874Z,101076.12
2022-10-31T01:31:36.414Z,101081.06
2022-10-31T01:34:38.860Z,101070.97
2022-10-31T01:37:41.605Z,101070.87
2022-10-31T01:40:44.150Z,101077.87
2022-10-31T01:43:49.174Z,101058.34
2022-10-31T01:46:57.683Z,101063.31
2022-10-31T01:50:03.883Z,101069.53
2022-10-31T01:53:09.189Z,101072.38
2022-10-31T01:56:13.061Z,101072.22
2022-10-31T01:59:19.763Z,101066.41
2022-10-31T02:02:22.600Z,101065.56
2022-10-31T02:05:28.688Z,101069.41
2022-10-31T02:08:33.543Z,101073.87
2022-10-31T02:11:38.021Z,101065.00
2022-10-31T02:14:41.581Z,101053.09
2022-10-31T02:17:44.452Z,101069.31
2022-10-31T02:21:07.459Z,101061.59
2022-10-31T02:24:28.061Z,101055.72
2022-10-31T02:28:02.457Z,101059.12
2022-10-31T02:31:27.543Z,101064.31
2022-10-31T02:34:41.530Z,101055.62
2022-10-31T02:37:50.126Z,101065.69
2022-10-31T02:41:06.034Z,101061.50
2022-10-31T02:44:32.831Z,101066.25
2022-10-31T02:47:38.273Z,101069.16
2022-10-31T02:50:44.742Z,101072.69
2022-10-31T02:53:47.281Z,101073.12
2022-10-31T02:56:55.448Z,101073.56
2022-10-31T03:00:05.609Z,101074.53
2022-10-31T03:03:25.578Z,101073.47
2022-10-31T03:06:40.244Z,101075.25
2022-10-31T03:09:54.908Z,101075.38
2022-10-31T03:13:16.058Z,101079.59
2022-10-31T03:16:29.029Z,101085.56
2022-10-31T03:19:38.171Z,101094.34
2022-10-31T03:22:43.932Z,101089.84
2022-10-31T03:25:48.113Z,101086.31
2022-10-31T03:28:58.373Z,101093.34
2022-10-31T03:32:18.494Z,101092.44
2022-10-31T03:35:25.263Z,101089.72
2022-10-31T03:38:29.150Z,101089.03
2022-10-31T03:41:40.178Z,101099.53
2022-10-31T03:44:48.131Z,101093.38
2022-10-31T03:47:52.033Z,101101.19
2022-10-31T03:51:14.087Z,101095.66
2022-10-31T03:54:24.069Z,101104.50
2022-10-31T03:57:49.185Z,101099.41
2022-10-31T04:00:54.897Z,101107.19
2022-10-31T04:03:59.357Z,101097.56
2022-10-31T04:07:03.270Z,101102.00
2022-10-31T04:10:09.325Z,101102.84
2022-10-31T04:16:23.469Z,101094.13
2022-10-31T04:19:26.329Z,101100.12
2022-10-31T04:22:29.232Z,101106.44
2022-10-31T04:25:31.982Z,101108.97
2022-10-31T04:28:35.386Z,101111.37
2022-10-31T04:31:38.115Z,101114.19
2022-10-31T04:34:40.842Z,101122.78
2022-10-31T04:37:43.327Z,101114.25
2022-10-31T04:40:46.866Z,101115.13
2022-10-31T04:43:50.805Z,101115.25
2022-10-31T04:46:53.621Z,101122.13
2022-10-31T04:49:56.015Z,101110.91
2022-10-31T04:52:58.732Z,101115.13
2022-10-31T04:56:01.995Z,101129.72
2022-10-31T04:59:08.699Z,101123.72
2022-10-31T05:02:12.344Z,101120.22
2022-10-31T05:05:17.359Z,101125.31
2022-10-31T05:08:19.981Z,101113.97
2022-10-31T05:11:25.371Z,101104.50
2022-10-31T05:14:30.489Z,101120.00
2022-10-31T05:17:34.647Z,101126.78
2022-10-31T05:20:38.745Z,101133.81
2022-10-31T05:23:45.850Z,101129.44
2022-10-31T05:26:51.087Z,101118.91
2022-10-31T05:29:54.059Z,101128.28
2022-10-31T05:32:57.310Z,101128.50
2022-10-31T05:36:02.862Z,101134.50
2022-10-31T05:39:05.913Z,101139.78
2022-10-31T05:42:09.506Z,101137.22
2022-10-31T05:45:17.909Z,101142.37
2022-10-31T05:48:21.205Z,101147.31
2022-10-31T05:51:28.258Z,101133.47
2022-10-31T05:54:31.486Z,101140.56
2022-10-31T05:57:34.899Z,101132.59
2022-10-31T06:00:38.745Z,101136.56
2022-10-31T06:03:41.960Z,101133.00
2022-10-31T06:06:44.477Z,101137.66
2022-10-31T06:09:47.204Z,101141.66
2022-10-31T06:12:49.841Z,101138.25
2022-10-31T06:15:53.046Z,101125.28
2022-10-31T06:18:56.886Z,101132.19
2022-10-31T06:21:59.642Z,101136.50
2022-10-31T06:25:02.166Z,101138.03
2022-10-31T06:28:05.451Z,101141.44
2022-10-31T06:31:08.993Z,101141.22
2022-10-31T06:34:12.062Z,101156.41
2022-10-31T06:37:15.142Z,101161.53
2022-10-31T06:40:18.275Z,101159.25
2022-10-31T06:43:23.189Z,101167.94
2022-10-31T06:46:26.184Z,101171.63
2022-10-31T06:49:30.587Z,101169.50
2022-10-31T06:52:34.419Z,101178.81
2022-10-31T06:55:38.358Z,101174.50
2022-10-31T06:58:42.004Z,101177.09
2022-10-31T07:01:44.953Z,101173.47
2022-10-31T07:04:47.859Z,101179.37
2022-10-31T07:07:54.991Z,101174.00
2022-10-31T07:10:58.354Z,101177.78
2022-10-31T07:14:00.948Z,101173.16
2022-10-31T07:17:03.772Z,101181.50
2022-10-31T07:20:07.817Z,101176.88
2022-10-31T07:23:11.936Z,101179.59
2022-10-31T07:26:14.780Z,101184.59
2022-10-31T07:29:18.039Z,101187.62
2022-10-31T07:32:20.571Z,101190.47
2022-10-31T07:35:28.201Z,101186.13
2022-10-31T07:38:31.940Z,101191.22
2022-10-31T07:41:38.087Z,101193.06
2022-10-31T07:44:40.496Z,101204.59
2022-10-31T07:47:56.705Z,101197.19
2022-10-31T07:51:07.932Z,101200.47
2022-10-31T07:54:12.384Z,101196.34
2022-10-31T07:57:16.019Z,101191.81
2022-10-31T08:00:19.343Z,101187.56
2022-10-31T08:03:24.860Z,101196.63
2022-10-31T08:06:29.852Z,101191.91
2022-10-31T08:09:34.589Z,101191.53
2022-10-31T08:12:37.414Z,101195.22
2022-10-31T08:15:42.522Z,101199.97
2022-10-31T08:18:46.070Z,101195.22
2022-10-31T08:21:53.413Z,101202.28
2022-10-31T08:24:56.051Z,101202.81
2022-10-31T08:27:59.088Z,101200.94
2022-10-31T08:31:01.746Z,101201.53
2022-10-31T08:34:12.883Z,101203.94
2022-10-31T08:37:20.913Z,101199.34
2022-10-31T08:40:28.753Z,101201.47
2022-10-31T08:43:31.282Z,101203.09
2022-10-31T08:46:34.234Z,101193.97
2022-10-31T08:49:37.012Z,101194.47
2022-10-31T08:53:03.749Z,101203.41
2022-10-31T08:56:02.935Z,101197.16
2022-10-31T08:59:05.656Z,101209.19
2022-10-31T09:02:09.605Z,101206.91
2022-10-31T09:05:13.147Z,101208.88
2022-10-31T09:08:17.190Z,101211.41
2022-10-31T09:11:20.684Z,101212.97
2022-10-31T09:14:38.279Z,101215.47
2022-10-31T09:17:48.716Z,101213.13
2022-10-31T09:20:52.057Z,101214.06
2022-10-31T09:23:54.921Z,101216.03
2022-10-31T09:26:59.759Z,101217.34
2022-10-31T09:30:02.719Z,101221.16
2022-10-31T09:33:10.622Z,101217.72
2022-10-31T09:36:14.230Z,101210.50
2022-10-31T09:39:16.718Z,101215.12
2022-10-31T09:42:31.717Z,101219.13
2022-10-31T09:45:45.388Z,101222.56
2022-10-31T09:49:22.229Z,101221.72
2022-10-31T09:52:34.422Z,101222.25
2022-10-31T09:55:47.647Z,101221.22
2022-10-31T09:59:11.520Z,101216.94
2022-10-31T10:02:26.867Z,101220.00
2022-10-31T10:05:41.614Z,101216.16
2022-10-31T10:08:45.616Z,101220.75
2022-10-31T10:12:07.555Z,101215.19
2022-10-31T10:15:40.193Z,101210.69
2022-10-31T10:18:55.999Z,101215.09
2022-10-31T10:22:48.309Z,101216.16
2022-10-31T10:26:00.164Z,101214.94
2022-10-31T10:29:25.322Z,101212.87
2022-10-31T10:32:30.579Z,101209.06
2022-10-31T10:36:03.438Z,101198.63
2022-10-31T10:39:17.738Z,101204.19
2022-10-31T10:42:40.069Z,101201.59
2022-10-31T10:46:07.873Z,101198.91
2022-10-31T10:49:18.884Z,101196.37
2022-10-31T10:52:50.204Z,101193.16
2022-10-31T10:55:59.389Z,101193.22
2022-10-31T10:59:03.418Z,101198.84
2022-10-31T11:02:18.250Z,101198.50
2022-10-31T11:05:29.194Z,101196.75
2022-10-31T11:08:36.653Z,101194.34
2022-10-31T11:11:39.847Z,101190.47
2022-10-31T11:15:00.255Z,101185.47
2022-10-31T11:18:03.323Z,101189.78
2022-10-31T11:21:06.429Z,101186.72
2022-10-31T11:24:12.238Z,101183.06
2022-10-31T11:27:22.205Z,101185.25
2022-10-31T11:30:25.049Z,101182.53
2022-10-31T11:33:33.247Z,101185.09
2022-10-31T11:36:43.068Z,101184.94
2022-10-31T11:39:54.379Z,101172.97
2022-10-31T11:43:00.325Z,101171.22
2022-10-31T11:46:12.168Z,101172.56
2022-10-31T11:49:42.979Z,101165.09
2022-10-31T11:52:45.668Z,101171.78
2022-10-31T11:55:59.915Z,101163.97
2022-10-31T11:59:05.196Z,101168.97
2022-10-31T12:02:20.216Z,101172.91
2022-10-31T12:05:30.162Z,101176.88
2022-10-31T12:08:35.983Z,101174.78
2022-10-31T12:12:04.824Z,101176.78
2022-10-31T12:15:27.529Z,101180.00
2022-10-31T12:18:43.835Z,101164.59
2022-10-31T12:22:01.616Z,101169.56
2022-10-31T12:25:22.765Z,101169.72
2022-10-31T12:28:46.317Z,101168.25
2022-10-31T12:32:17.118Z,101174.44
2022-10-31T12:35:53.220Z,101169.44
2022-10-31T12:39:20.903Z,101167.56
2022-10-31T12:42:45.443Z,101171.19
2022-10-31T12:45:59.674Z,101169.44
2022-10-31T12:49:29.987Z,101164.38
2022-10-31T12:52:35.139Z,101161.03
2022-10-31T12:55:46.914Z,101160.00
2022-10-31T12:58:56.320Z,101161.63
2022-10-31T13:02:26.693Z,101160.97
2022-10-31T13:05:37.159Z,101164.50
2022-10-31T13:08:46.175Z,101158.50
2022-10-31T13:12:00.709Z,101160.38
2022-10-31T13:15:19.124Z,101159.06
2022-10-31T13:18:34.134Z,101156.84
2022-10-31T13:22:00.408Z,101148.94
2022-10-31T13:25:10.261Z,101152.16
2022-10-31T13:28:25.098Z,101151.97
2022-10-31T13:31:28.503Z,101148.91
2022-10-31T13:34:40.436Z,101152.16
2022-10-31T13:37:54.514Z,101147.44
2022-10-31T13:41:03.224Z,101147.44
2022-10-31T13:44:11.970Z,101151.94
2022-10-31T13:47:25.749Z,101148.44
2022-10-31T13:50:31.230Z,101149.44
2022-10-31T13:53:43.103Z,101154.91
2022-10-31T13:56:50.442Z,101153.84
2022-10-31T13:59:57.042Z,101158.81
2022-10-31T14:02:59.984Z,101153.53
2022-10-31T14:06:02.958Z,101150.53
2022-10-31T14:09:05.873Z,101150.91
2022-10-31T14:12:16.139Z,101148.22
2022-10-31T14:15:26.211Z,101149.94
2022-10-31T14:18:34.528Z,101141.25
2022-10-31T14:21:43.237Z,101150.12
2022-10-31T14:24:45.919Z,101143.91
2022-10-31T14:27:48.401Z,101144.72
2022-10-31T14:30:59.196Z,101142.13
2022-10-31T14:34:05.510Z,101147.22
2022-10-31T14:37:44.989Z,101143.72
2022-10-31T14:41:03.416Z,101144.06
2022-10-31T14:44:35.398Z,101145.75
2022-10-31T14:47:51.282Z,101141.69
2022-10-31T14:50:59.466Z,101145.31
2022-10-31T14:54:03.490Z,101143.81
2022-10-31T14:57:15.038Z,101140.69
2022-10-31T15:00:21.442Z,101148.47
2022-10-31T15:03:27.779Z,101152.00
2022-10-31T15:06:37.583Z,101149.56
2022-10-31T15:09:44.283Z,101146.56
2022-10-31T15:12:46.759Z,101147.69
2022-10-31T15:15:53.139Z,101145.03
2022-10-31T15:19:13.691Z,101142.16
2022-10-31T15:22:20.068Z,101140.38
2022-10-31T15:25:24.875Z,101143.19
2022-10-31T15:28:28.301Z,101144.94
2022-10-31T15:31:32.128Z,101144.00
2022-10-31T15:34:40.421Z,101141.53
2022-10-31T15:37:43.063Z,101140.94
2022-10-31T15:40:55.045Z,101147.00
2022-10-31T15:44:03.545Z,101144.12
2022-10-31T15:47:18.207Z,101144.84
2022-10-31T15:50:43.702Z,101152.53
2022-10-31T15:53:51.420Z,101155.22
2022-10-31T15:56:53.864Z,101154.50
2022-10-31T15:59:57.674Z,101155.87
2022-10-31T16:03:15.025Z,101159.34
2022-10-31T16:06:22.159Z,101162.56
2022-10-31T16:09:25.238Z,101161.03
2022-10-31T16:12:38.199Z,101164.94
2022-10-31T16:16:08.802Z,101171.44
2022-10-31T16:19:28.093Z,101171.56
2022-10-31T16:22:34.436Z,101175.81
2022-10-31T16:25:41.116Z,101177.00
2022-10-31T16:28:53.448Z,101176.88
2022-10-31T16:31:57.415Z,101178.91
2022-10-31T16:35:02.216Z,101183.50
2022-10-31T16:41:26.817Z,101188.63
2022-10-31T16:44:29.667Z,101203.50
2022-10-31T16:47:32.118Z,101195.66
2022-10-31T16:50:34.979Z,101197.09
2022-10-31T16:53:40.603Z,101198.44
2022-10-31T16:56:45.574Z,101201.97
2022-10-31T16:59:52.549Z,101205.47
2022-10-31T17:02:57.682Z,101206.69
2022-10-31T17:06:00.563Z,101205.94
2022-10-31T17:09:03.674Z,101208.91
2022-10-31T17:12:13.434Z,101209.13
2022-10-31T17:15:23.434Z,101211.97
2022-10-31T17:18:27.809Z,101214.75
2022-10-31T17:21:31.017Z,101213.31
2022-10-31T17:24:33.632Z,101214.16
2022-10-31T17:27:36.556Z,101213.94
2022-10-31T17:30:40.255Z,101214.22
2022-10-31T17:33:43.284Z,101220.47
2022-10-31T17:36:51.584Z,101214.22
2022-10-31T17:39:54.586Z,101216.66
2022-10-31T17:42:58.217Z,101214.31
2022-10-31T17:46:01.584Z,101210.06
2022-10-31T17:49:07.011Z,101211.88
2022-10-31T17:52:09.923Z,101213.00
2022-10-31T17:55:13.405Z,101213.78
2022-10-31T17:58:17.452Z,101219.16
2022-10-31T18:01:20.284Z,101216.66
2022-10-31T18:04:23.465Z,101224.44
2022-10-31T18:07:26.184Z,101220.25
2022-10-31T18:10:29.482Z,101220.88
2022-10-31T18:13:32.431Z,101214.88
2022-10-31T18:19:39.391Z,101212.25
2022-10-31T18:22:42.335Z,101211.25
2022-10-31T18:25:48.110Z,101216.06
2022-10-31T18:28:51.870Z,101217.81
2022-10-31T18:31:55.288Z,101215.88
2022-10-31T18:34:58.187Z,101206.72
2022-10-31T18:38:03.223Z,101213.56
2022-10-31T18:41:07.328Z,101215.19
2022-10-31T18:44:10.291Z,101213.56
2022-10-31T18:47:13.481Z,101213.50
2022-10-31T18:50:16.505Z,101210.97
2022-10-31T18:53:20.815Z,101204.38
2022-10-31T18:56:25.046Z,101204.38
2022-10-31T18:59:28.657Z,101211.81
2022-10-31T19:02:31.734Z,101207.47
2022-10-31T19:05:34.846Z,101209.06
2022-10-31T19:08:39.622Z,101209.91
2022-10-31T19:11:42.878Z,101211.53
2022-10-31T19:14:46.098Z,101213.28
2022-10-31T19:17:49.483Z,101211.56
2022-10-31T19:20:52.158Z,101209.13
2022-10-31T19:23:56.452Z,101208.94
2022-10-31T19:27:00.681Z,101208.97
2022-10-31T19:30:06.366Z,101205.69
2022-10-31T19:33:09.524Z,101210.88
2022-10-31T19:36:18.770Z,101212.97
2022-10-31T19:39:21.775Z,101207.00
2022-10-31T19:42:25.184Z,101211.34
2022-10-31T19:45:27.844Z,101207.00
2022-10-31T19:48:36.573Z,101213.16
2022-10-31T19:51:39.890Z,101202.66
2022-10-31T19:54:42.808Z,101206.16
2022-10-31T19:58:11.934Z,101211.47
2022-10-31T20:01:09.629Z,101206.25
2022-10-31T20:04:12.986Z,101206.25
2022-10-31T20:07:16.022Z,101206.16
2022-10-31T20:10:19.994Z,101220.03
2022-10-31T20:13:23.762Z,101211.22
2022-10-31T20:16:27.921Z,101212.25
2022-10-31T20:19:31.065Z,101213.03
2022-10-31T20:22:36.130Z,101221.72
2022-10-31T20:25:50.184Z,101226.16
2022-10-31T20:28:55.791Z,101224.47
2022-10-31T20:31:58.541Z,101226.34
2022-10-31T20:35:01.560Z,101225.44
2022-10-31T20:38:05.339Z,101233.63
2022-10-31T20:41:10.941Z,101226.72
2022-10-31T20:44:13.649Z,101223.63
2022-10-31T20:47:19.389Z,101222.78
2022-10-31T20:50:25.666Z,101216.63
2022-10-31T20:53:29.380Z,101212.38
2022-10-31T20:56:32.180Z,101220.81
2022-10-31T20:59:35.374Z,101220.25
2022-10-31T21:02:42.333Z,101221.66
2022-10-31T21:05:56.070Z,101218.34
2022-10-31T21:08:58.664Z,101217.66
2022-10-31T21:12:01.435Z,101213.44
2022-10-31T21:15:04.320Z,101221.16
2022-10-31T21:18:07.436Z,101216.84
2022-10-31T21:21:12.637Z,101214.19
2022-10-31T21:27:20.251Z,101218.66
2022-10-31T21:30:22.977Z,101213.53
2022-10-31T21:33:25.781Z,101219.69
2022-10-31T21:36:28.539Z,101211.66
2022-10-31T21:39:31.060Z,101212.72
2022-10-31T21:42:34.029Z,101208.19
2022-10-31T21:45:36.519Z,101203.19
2022-10-31T21:48:44.089Z,101200.69
2022-10-31T21:51:47.577Z,101207.66
2022-10-31T21:54:50.351Z,101198.16
2022-10-31T21:57:52.756Z,101199.75
2022-10-31T22:00:55.531Z,101192.81
2022-10-31T22:03:58.641Z,101191.09
2022-10-31T22:07:01.100Z,101184.97
2022-10-31T22:10:04.117Z,101194.47
2022-10-31T22:13:06.615Z,101188.34
2022-10-31T22:16:12.015Z,101192.50
2022-10-31T22:19:14.747Z,101191.06
2022-10-31T22:22:17.562Z,101193.50
2022-10-31T22:25:20.028Z,101193.81
2022-10-31T22:28:23.144Z,101192.25
2022-10-31T22:31:27.130Z,101192.97
2022-10-31T22:34:29.902Z,101199.13
2022-10-31T22:37:32.317Z,101191.25
2022-10-31T22:40:35.000Z,101199.19
2022-10-31T22:43:37.608Z,101187.06
2022-10-31T22:46:40.357Z,101190.59
2022-10-31T22:49:43.819Z,101189.66
2022-10-31T22:52:46.541Z,101190.47
2022-10-31T22:55:52.017Z,101181.06
2022-10-31T22:58:55.045Z,101177.28
2022-10-31T23:01:57.720Z,101170.69
2022-10-31T23:05:00.577Z,101173.34
2022-10-31T23:08:03.682Z,101182.25
2022-10-31T23:11:34.569Z,101184.84
2022-10-31T23:14:37.022Z,101185.75
2022-10-31T23:17:39.769Z,101184.84
2022-10-31T23:20:42.977Z,101182.00
2022-10-31T23:23:45.687Z,101178.63
2022-10-31T23:27:09.095Z,101176.25
2022-10-31T23:30:12.045Z,101179.59
2022-10-31T23:33:14.474Z,101184.19
2022-10-31T23:36:17.215Z,101176.06
2022-10-31T23:39:24.154Z,101170.19
2022-10-31T23:42:28.819Z,101167.56
2022-10-31T23:45:31.340Z,101161.59
2022-10-31T23:48:34.171Z,101171.94
2022-10-31T23:51:37.526Z,101163.22
2022-10-31T23:54:40.569Z,101159.88
2022-10-31T23:57:43.103Z,101170.13
